ZBAA

Beijing Capital International Airport

Beijing, China
TAF ZBAA 191520Z 1918/2018 33004MPS CAVOK TX10/2007Z TNM03/21Z
Issued Valid From Valid To
Nov-19 @ 15:20 UTC
(7 hours ago)
Nov-19 @ 18:00 UTC
(4 hours ago)
Nov-20 @ 18:00 UTC
(in 20 hours)
Nov-19 @ 18:00 to Nov-20 @ 18:00
TAF ZBAA 191520Z 1918/2018 33004MPS CAVOK TX10/2007Z TNM03/21Z
Wind Visibility Clouds
330° at 8 knots 10,000+ meters
  • No significant clouds
TAF ZBAA 191520Z 1918/2018 33004MPS CAVOK TX10/2007Z TNM03/21Z
Issued Nov-19 @ 15:20 UTC
(7 hours ago)
Valid From Nov-19 @ 18:00 UTC
(4 hours ago)
Valid To Nov-20 @ 18:00 UTC
(in 20 hours)
Nov-19 @ 18:00 - Nov-20 @ 18:00
Wind Visibility
330° at 8 knots 10,000+ meters
Clouds
  • No significant clouds